Time;durP1;ratioP1;P1;durP2;ratioP2;P2;SDS_P1;SDS_P2;PMS_P1;PMS_P2;Temp;Humidity;BMP_temperature;BMP_pressure;BME280_temperature;BME280_humidity;BME280_pressure;Samples;Min_cycle;Max_cycle;Signal;HPM_P1;HPM_P2
2021/04/04 00:02:17;;;;;;;7.25;3.73;;;;;;;1.59;64.70;100491.23;115626;1199;101551;-79
2021/04/04 00:04:44;;;;;;;8.60;3.40;;;;;;;1.58;64.50;100484.38;115329;1199;103069;-79
2021/04/04 00:07:11;;;;;;;7.43;3.50;;;;;;;1.54;64.46;100478.36;115291;1196;103027;-79
2021/04/04 00:09:38;;;;;;;9.67;3.90;;;;;;;1.51;64.47;100476.63;115362;1196;103105;-79
2021/04/04 00:12:07;;;;;;;8.03;3.93;;;;;;;1.46;64.55;100482.59;115338;1196;103034;-78
2021/04/04 00:14:35;;;;;;;6.87;3.27;;;;;;;1.45;64.97;100486.01;115333;1197;103034;-79
2021/04/04 00:17:04;;;;;;;8.78;3.70;;;;;;;1.43;65.09;100483.39;115394;1196;103079;-79
2021/04/04 00:19:32;;;;;;;7.53;3.40;;;;;;;1.41;64.68;100484.23;115318;1196;103111;-78
2021/04/04 00:22:00;;;;;;;9.60;3.80;;;;;;;1.39;64.94;100481.66;115321;1199;103117;-78
2021/04/04 00:24:27;;;;;;;7.83;3.67;;;;;;;1.34;65.21;100480.77;115385;1196;103294;-79
2021/04/04 00:26:54;;;;;;;9.50;3.83;;;;;;;1.30;64.81;100480.73;115326;1199;102999;-79
2021/04/04 00:29:22;;;;;;;7.07;3.07;;;;;;;1.26;65.46;100481.52;115569;1196;103033;-78
2021/04/04 00:31:49;;;;;;;7.90;3.73;;;;;;;1.23;65.39;100484.92;115334;1199;102992;-78
2021/04/04 00:34:16;;;;;;;9.83;3.80;;;;;;;1.21;65.34;100477.21;115526;1199;103037;-79
2021/04/04 00:36:43;;;;;;;7.80;3.57;;;;;;;1.20;65.52;100483.20;115449;1196;103098;-79
2021/04/04 00:39:12;;;;;;;7.90;3.53;;;;;;;1.17;65.62;100478.03;115582;1196;103115;-79
2021/04/04 00:41:42;;;;;;;9.90;4.60;;;;;;;1.16;65.72;100481.45;115376;1196;103047;-79
2021/04/04 00:44:10;;;;;;;8.20;4.15;;;;;;;1.14;65.50;100483.15;115621;1196;103509;-79
2021/04/04 00:46:39;;;;;;;9.50;3.90;;;;;;;1.12;65.76;100482.27;115336;1196;102992;-79
2021/04/04 00:49:07;;;;;;;9.50;3.50;;;;;;;1.10;65.81;100478.83;115383;1196;103556;-78
2021/04/04 00:51:35;;;;;;;7.47;3.23;;;;;;;1.08;65.57;100477.10;115332;1199;103133;-78
2021/04/04 00:54:04;;;;;;;8.77;3.60;;;;;;;1.07;66.23;100488.19;115389;1196;103772;-79
2021/04/04 00:56:34;;;;;;;6.60;3.20;;;;;;;1.06;66.20;100483.90;115343;1196;103021;-78
2021/04/04 00:59:03;;;;;;;10.23;4.10;;;;;;;1.05;66.27;100485.61;115575;1200;103047;-78
2021/04/04 01:01:32;;;;;;;9.43;4.00;;;;;;;1.02;66.19;100490.72;115486;1196;103025;-79
2021/04/04 01:04:00;;;;;;;10.13;3.87;;;;;;;0.99;66.50;100488.13;115614;1196;103460;-78
2021/04/04 01:06:27;;;;;;;9.23;4.20;;;;;;;0.98;66.55;100496.67;115563;1194;103053;-78
2021/04/04 01:08:54;;;;;;;7.93;4.03;;;;;;;0.95;66.64;100491.52;115302;1198;103091;-78
2021/04/04 01:11:53;;;;;;;8.70;4.60;;;;;;;0.94;65.96;100494.92;115312;1196;103117;-79
2021/04/04 01:14:29;;;;;;;9.57;4.80;;;;;;;0.91;66.55;100500.03;115317;1199;103007;-79
2021/04/04 01:17:02;;;;;;;8.77;4.40;;;;;;;0.89;66.56;100502.55;115363;1197;103268;-79
2021/04/04 01:20:02;;;;;;;9.93;4.30;;;;;;;0.88;66.43;100502.55;115378;1196;103089;-77
2021/04/04 01:22:32;;;;;;;9.83;3.97;;;;;;;0.86;67.19;100497.39;115288;1196;102983;-78
2021/04/04 01:25:04;;;;;;;8.50;4.10;;;;;;;0.87;66.96;100498.25;115537;1200;103098;-77
2021/04/04 01:28:01;;;;;;;10.53;3.53;;;;;;;0.87;67.42;100485.41;115479;1197;103062;-76
2021/04/04 01:30:35;;;;;;;9.30;3.67;;;;;;;0.88;67.40;100484.56;115581;1196;103035;-78
2021/04/04 01:33:04;;;;;;;10.87;3.70;;;;;;;0.91;67.81;100487.20;115329;1198;103057;-78
2021/04/04 01:35:36;;;;;;;9.25;3.50;;;;;;;0.98;67.98;100488.11;115295;1199;103041;-77
2021/04/04 01:38:23;;;;;;;8.83;3.23;;;;;;;1.02;67.85;100483.02;115312;1199;103155;-78
2021/04/04 01:40:56;;;;;;;8.50;3.60;;;;;;;1.07;67.62;100481.34;115326;1198;103098;-78
2021/04/04 01:43:25;;;;;;;6.80;3.10;;;;;;;1.13;67.89;100485.70;115416;1197;103130;-79
2021/04/04 01:45:54;;;;;;;6.50;3.17;;;;;;;1.17;67.30;100485.73;115374;1198;103014;-78
2021/04/04 01:48:21;;;;;;;10.47;3.50;;;;;;;1.20;67.41;100490.90;115323;1199;103140;-78
2021/04/04 01:50:49;;;;;;;5.90;3.33;;;;;;;1.26;67.92;100491.80;115360;1199;102999;-78
2021/04/04 01:53:18;;;;;;;6.53;3.23;;;;;;;1.29;67.54;100492.72;115257;1199;103102;-78
2021/04/04 01:55:47;;;;;;;6.70;3.17;;;;;;;1.35;67.19;100494.47;115332;1199;102992;-78
2021/04/04 01:58:16;;;;;;;6.65;3.55;;;;;;;1.38;67.66;100492.78;115335;1198;103069;-78
2021/04/04 02:00:45;;;;;;;8.40;3.70;;;;;;;1.43;67.58;100493.67;115465;1200;103060;-78
2021/04/04 02:03:13;;;;;;;7.20;3.50;;;;;;;1.46;67.55;100490.30;115384;1199;103133;-79
2021/04/04 02:05:41;;;;;;;9.63;3.60;;;;;;;1.45;67.00;100491.14;115604;1196;103485;-78
2021/04/04 02:08:12;;;;;;;10.57;4.10;;;;;;;1.45;66.84;100489.44;115325;1196;104324;-78
2021/04/04 02:10:40;;;;;;;9.43;3.90;;;;;;;1.47;67.20;100497.16;115647;1196;103076;-78
2021/04/04 02:13:09;;;;;;;6.30;3.00;;;;;;;1.48;67.07;100502.31;115303;1199;103143;-78
2021/04/04 02:15:37;;;;;;;8.17;3.60;;;;;;;1.47;67.31;100508.30;115487;1196;103041;-78
2021/04/04 02:18:09;;;;;;;7.33;3.37;;;;;;;1.49;67.04;100495.46;115327;1199;103034;-78
2021/04/04 02:20:38;;;;;;;7.10;3.77;;;;;;;1.49;66.95;100501.45;115346;1200;103072;-78
2021/04/04 02:23:09;;;;;;;7.23;3.57;;;;;;;1.53;67.55;100497.20;115350;1200;102998;-78
2021/04/04 02:25:37;;;;;;;8.63;3.47;;;;;;;1.56;66.97;100502.36;115447;1196;103056;-78
2021/04/04 02:28:05;;;;;;;9.93;3.80;;;;;;;1.58;66.97;100500.66;115607;1196;103027;-78
2021/04/04 02:30:33;;;;;;;9.07;3.60;;;;;;;1.61;67.29;100499.82;115545;1199;103054;-79
2021/04/04 02:33:15;;;;;;;8.27;3.33;;;;;;;1.63;66.99;100498.16;115547;1198;103546;-77
2021/04/04 02:35:44;;;;;;;8.00;3.53;;;;;;;1.62;66.79;100492.15;115380;1196;103056;-78
2021/04/04 02:38:18;;;;;;;8.53;3.57;;;;;;;1.63;67.27;100495.58;115396;1197;103081;-79
2021/04/04 02:40:47;;;;;;;7.77;3.20;;;;;;;1.64;67.03;100497.30;115506;1198;103088;-78
2021/04/04 02:43:26;;;;;;;7.70;3.13;;;;;;;1.64;66.69;100499.88;115384;1196;102925;-78
2021/04/04 02:45:55;;;;;;;8.83;4.03;;;;;;;1.67;66.87;100495.61;115319;1200;103057;-77
2021/04/04 02:48:30;;;;;;;5.83;3.30;;;;;;;1.68;66.90;100499.91;115375;1199;103089;-77
2021/04/04 02:51:05;;;;;;;7.40;3.30;;;;;;;1.70;67.33;100502.48;115324;1199;103028;-77
2021/04/04 02:53:39;;;;;;;8.77;3.90;;;;;;;1.70;67.20;100502.48;115582;1196;103095;-78
2021/04/04 02:56:08;;;;;;;8.30;3.17;;;;;;;1.73;67.31;100505.07;115583;1199;103030;-78
2021/04/04 02:58:38;;;;;;;6.53;3.37;;;;;;;1.73;67.03;100508.50;115545;1196;103024;-78
2021/04/04 03:01:09;;;;;;;6.95;3.55;;;;;;;1.76;67.54;100502.52;115400;1196;103152;-78
2021/04/04 03:03:38;;;;;;;7.13;3.60;;;;;;;1.75;66.88;100509.38;115577;1196;103232;-78
2021/04/04 03:06:08;;;;;;;9.83;4.13;;;;;;;1.75;67.23;100503.38;115651;1196;103098;-78
2021/04/04 03:08:41;;;;;;;7.40;4.00;;;;;;;1.74;67.51;100512.80;115340;1200;103017;-78
2021/04/04 03:11:11;;;;;;;7.60;3.90;;;;;;;1.73;67.45;100511.08;115573;1199;102983;-78
2021/04/04 03:13:41;;;;;;;6.97;3.93;;;;;;;1.74;67.35;100517.94;115265;1199;103684;-78
2021/04/04 03:16:10;;;;;;;8.83;4.03;;;;;;;1.73;67.15;100513.64;115344;1198;103076;-78
2021/04/04 03:18:41;;;;;;;6.10;4.03;;;;;;;1.74;67.08;100519.65;115443;1199;103155;-78
2021/04/04 03:21:10;;;;;;;8.67;4.47;;;;;;;1.73;67.39;100521.36;115575;1200;103019;-77
2021/04/04 03:23:39;;;;;;;7.33;4.23;;;;;;;1.76;67.49;100526.52;115351;1198;103005;-77
2021/04/04 03:26:08;;;;;;;9.03;4.07;;;;;;;1.76;67.45;100525.66;115523;1197;103069;-77
2021/04/04 03:28:37;;;;;;;8.80;4.20;;;;;;;1.77;67.04;100525.67;115555;1198;103037;-78
2021/04/04 03:31:05;;;;;;;8.47;4.00;;;;;;;1.76;66.88;100523.09;115556;1200;103054;-78
2021/04/04 03:33:33;;;;;;;7.67;3.93;;;;;;;1.73;67.32;100521.36;115474;1196;103078;-78
2021/04/04 03:36:01;;;;;;;9.40;4.93;;;;;;;1.75;67.20;100534.23;115601;1196;103053;-78
2021/04/04 03:38:30;;;;;;;6.50;4.07;;;;;;;1.75;67.37;100529.94;115325;1197;103066;-78
2021/04/04 03:40:58;;;;;;;9.50;4.03;;;;;;;1.77;67.39;100528.24;115343;1198;103027;-78
2021/04/04 03:43:30;;;;;;;6.37;4.17;;;;;;;1.80;66.92;100525.72;115542;1194;103210;-77
2021/04/04 03:46:00;;;;;;;6.43;4.50;;;;;;;1.82;67.12;100525.73;115419;1199;103006;-78
2021/04/04 03:48:30;;;;;;;8.57;4.83;;;;;;;1.81;67.46;100524.02;115334;1196;102983;-77
2021/04/04 03:51:01;;;;;;;9.73;4.07;;;;;;;1.80;67.30;100518.01;115580;1196;103155;-78
2021/04/04 03:53:29;;;;;;;7.90;4.27;;;;;;;1.79;66.97;100521.39;115276;1196;103065;-79
2021/04/04 03:56:03;;;;;;;8.33;4.40;;;;;;;1.81;67.12;100522.30;115325;1196;103021;-77
2021/04/04 03:58:33;;;;;;;7.40;4.40;;;;;;;1.84;67.65;100521.45;115450;1199;102912;-78
2021/04/04 04:01:03;;;;;;;11.70;5.03;;;;;;;1.85;67.12;100524.89;115405;1200;103075;-78
2021/04/04 04:03:33;;;;;;;7.77;4.10;;;;;;;1.86;67.12;100526.61;115544;1198;103024;-78
2021/04/04 04:06:01;;;;;;;7.90;4.33;;;;;;;1.84;66.87;100528.31;115343;1196;103041;-78
2021/04/04 04:08:31;;;;;;;9.13;4.70;;;;;;;1.81;67.46;100530.02;115560;1196;102976;-79
2021/04/04 04:10:59;;;;;;;7.80;4.30;;;;;;;1.81;67.63;100535.16;115364;1200;103037;-78
2021/04/04 04:13:28;;;;;;;9.03;4.37;;;;;;;1.82;67.51;100533.45;115414;1196;102990;-78
2021/04/04 04:15:56;;;;;;;9.90;4.50;;;;;;;1.85;67.63;100533.47;115359;1196;101928;-78
2021/04/04 04:18:24;;;;;;;6.60;4.40;;;;;;;1.90;67.00;100544.64;115537;1196;103076;-78
2021/04/04 04:20:52;;;;;;;9.57;4.17;;;;;;;1.96;67.30;100536.95;115324;1196;103165;-77
2021/04/04 04:23:20;;;;;;;9.07;5.43;;;;;;;1.98;67.11;100542.14;115339;1196;103120;-78
2021/04/04 04:25:48;;;;;;;7.57;5.10;;;;;;;2.02;67.01;100537.02;115589;1196;103034;-77
2021/04/04 04:28:17;;;;;;;6.87;4.23;;;;;;;2.04;66.92;100537.03;115339;1196;103072;-78
2021/04/04 04:30:45;;;;;;;6.43;4.30;;;;;;;2.07;67.05;100542.20;115282;1199;103098;-78
2021/04/04 04:33:16;;;;;;;7.97;4.17;;;;;;;2.07;66.85;100537.05;115327;1199;103031;-78
2021/04/04 04:35:45;;;;;;;7.23;4.30;;;;;;;2.09;67.27;100530.20;115310;1198;102974;-78
2021/04/04 04:38:13;;;;;;;7.55;4.30;;;;;;;2.08;67.14;100525.91;115321;1199;103030;-77
2021/04/04 04:40:41;;;;;;;9.57;4.60;;;;;;;2.09;66.69;100530.20;115281;1199;103699;-77
2021/04/04 04:43:13;;;;;;;6.93;4.30;;;;;;;2.08;66.72;100520.76;115310;1200;103168;-78
2021/04/04 04:45:41;;;;;;;7.37;4.33;;;;;;;2.10;67.00;100521.63;115324;1199;103037;-79
2021/04/04 04:48:09;;;;;;;8.33;4.20;;;;;;;2.15;66.73;100522.51;115353;1197;103040;-78
2021/04/04 04:50:37;;;;;;;6.87;4.37;;;;;;;2.17;66.88;100523.41;115556;1200;103088;-78
2021/04/04 04:53:04;;;;;;;6.20;4.77;;;;;;;2.20;67.15;100526.00;115307;1200;104186;-78
2021/04/04 04:55:33;;;;;;;9.17;5.00;;;;;;;2.21;66.97;100530.29;115584;1199;103143;-79
2021/04/04 04:58:03;;;;;;;10.17;5.67;;;;;;;2.25;67.11;100532.02;115357;1199;103069;-78
2021/04/04 05:00:32;;;;;;;7.50;4.90;;;;;;;2.30;66.81;100519.17;115322;1197;103153;-79
2021/04/04 05:02:59;;;;;;;9.17;5.30;;;;;;;2.31;67.01;100531.19;115356;1198;103118;-79
2021/04/04 05:05:27;;;;;;;10.07;4.40;;;;;;;2.35;66.60;100533.81;115294;1197;103197;-78
2021/04/04 05:07:55;;;;;;;12.80;5.47;;;;;;;2.39;66.72;100530.39;115256;1199;103146;-78
2021/04/04 05:10:23;;;;;;;8.00;4.95;;;;;;;2.44;66.54;100527.84;115338;1200;103369;-78
2021/04/04 05:13:02;;;;;;;10.25;5.05;;;;;;;2.46;66.45;100532.99;115600;1199;103120;-77
2021/04/04 05:15:29;;;;;;;14.37;8.40;;;;;;;2.48;66.66;100531.28;115318;1199;103025;-77
2021/04/04 05:17:57;;;;;;;13.47;7.00;;;;;;;2.51;66.51;100529.58;115390;1196;103546;-78
2021/04/04 05:20:24;;;;;;;7.80;5.70;;;;;;;2.53;66.45;100534.77;115297;1194;103034;-77
2021/04/04 05:22:52;;;;;;;10.60;5.90;;;;;;;2.53;66.61;100539.91;115358;1196;103310;-78
2021/04/04 05:25:20;;;;;;;10.27;6.20;;;;;;;2.56;66.48;100543.36;115262;1196;103137;-77
2021/04/04 05:27:47;;;;;;;9.75;5.70;;;;;;;2.57;66.25;100545.08;115328;1200;103043;-78
2021/04/04 05:30:14;;;;;;;11.30;6.20;;;;;;;2.59;66.54;100542.51;115574;1199;103031;-77
2021/04/04 05:32:46;;;;;;;12.00;7.17;;;;;;;2.62;66.59;100542.52;115528;1199;103056;-78
2021/04/04 05:35:15;;;;;;;9.30;6.75;;;;;;;2.59;66.55;100542.51;115315;1197;103027;-78
2021/04/04 05:37:53;;;;;;;9.07;6.00;;;;;;;2.56;66.47;100558.81;115327;1199;103068;-78
2021/04/04 05:40:22;;;;;;;11.03;6.57;;;;;;;2.55;66.62;100562.23;115589;1200;103021;-78
2021/04/04 05:42:55;;;;;;;14.87;6.20;;;;;;;2.54;66.10;100560.52;115312;1199;103083;-78
2021/04/04 05:45:34;;;;;;;10.80;6.30;;;;;;;2.55;66.17;100562.23;115560;1200;103034;-78
2021/04/04 05:48:35;;;;;;;11.77;7.13;;;;;;;2.56;66.49;100561.38;115539;1197;103516;-78
2021/04/04 05:51:06;;;;;;;13.97;7.23;;;;;;;2.55;66.69;100559.66;115491;1196;103078;-77
2021/04/04 05:54:01;;;;;;;11.47;7.20;;;;;;;2.60;66.85;100567.41;115593;1196;103216;-78
2021/04/04 05:56:38;;;;;;;11.10;7.00;;;;;;;2.60;66.19;100564.83;115333;1196;103056;-77
2021/04/04 05:59:09;;;;;;;11.43;7.37;;;;;;;2.62;66.37;100568.27;115338;1196;103085;-77
2021/04/04 06:02:09;;;;;;;12.13;8.57;;;;;;;2.63;66.28;100563.13;115342;1196;103071;-77
2021/04/04 06:04:54;;;;;;;14.93;7.43;;;;;;;2.65;65.95;100557.98;115522;1198;103005;-78
2021/04/04 06:07:55;;;;;;;10.70;7.63;;;;;;;2.64;65.95;100557.12;115336;1199;102757;-78
2021/04/04 06:10:58;;;;;;;11.20;6.50;;;;;;;2.67;65.98;100571.72;115607;1196;103104;-77
2021/04/04 06:13:42;;;;;;;10.43;6.93;;;;;;;2.69;66.18;100570.01;115187;1202;103351;-77
2021/04/04 06:16:11;;;;;;;22.50;10.80;;;;;;;2.71;66.25;100573.48;115168;1203;103142;-79
2021/04/04 06:18:57;;;;;;;10.80;7.30;;;;;;;2.70;65.80;100571.77;115241;1203;103216;-77
2021/04/04 06:21:41;;;;;;;8.70;6.40;;;;;;;2.74;65.90;100576.06;115125;1202;103120;-77
2021/04/04 06:24:47;;;;;;;12.15;6.60;;;;;;;2.81;66.14;100575.23;115258;1202;103095;-78
2021/04/04 06:27:32;;;;;;;10.87;6.27;;;;;;;2.90;65.86;100579.58;115145;1202;102826;-78
2021/04/04 06:30:46;;;;;;;10.05;6.50;;;;;;;2.96;65.82;100580.45;115222;1202;103104;-78
2021/04/04 06:33:12;;;;;;;8.90;5.60;;;;;;;3.10;65.71;100582.23;115250;1202;103034;-79
2021/04/04 06:36:20;;;;;;;9.45;5.35;;;;;;;3.21;65.46;100575.38;115174;1202;103110;-78
2021/04/04 06:39:06;;;;;;;;;;;;;;;3.33;65.01;100585.73;114982;1211;103196;-78
2021/04/04 06:41:46;;;;;;;8.20;5.30;;;;;;;3.37;65.10;100577.14;115004;1205;103076;-78
2021/04/04 06:44:13;;;;;;;8.10;5.00;;;;;;;3.40;65.05;100574.56;114932;1206;103174;-78
2021/04/04 06:46:43;;;;;;;9.40;5.50;;;;;;;3.48;64.78;100577.17;114935;1206;103068;-78
2021/04/04 06:49:22;;;;;;;10.13;5.70;;;;;;;3.56;64.77;100578.03;115000;1205;103055;-78
2021/04/04 06:51:59;;;;;;;9.93;4.83;;;;;;;3.67;64.73;100578.92;114992;1202;103056;-78
2021/04/04 06:55:08;;;;;;;16.13;8.33;;;;;;;3.80;64.56;100570.34;114971;1203;103140;-78
2021/04/04 06:58:00;;;;;;;11.20;6.10;;;;;;;3.97;64.14;100579.81;114980;1203;102835;-78
2021/04/04 07:00:50;;;;;;;11.65;6.35;;;;;;;4.12;63.76;100574.62;114984;1202;103162;-79
2021/04/04 07:03:20;;;;;;;11.80;5.80;;;;;;;4.24;63.48;100580.64;115071;1202;103021;-78
2021/04/04 07:06:09;;;;;;;9.65;5.40;;;;;;;4.36;63.02;100579.78;115128;1202;103206;-79
2021/04/04 07:09:22;;;;;;;7.15;4.85;;;;;;;4.45;62.85;100586.63;114987;1201;103197;-77
2021/04/04 07:11:56;;;;;;;9.20;5.03;;;;;;;4.51;62.38;100584.92;115041;1203;102054;-79
2021/04/04 07:14:31;;;;;;;10.20;6.20;;;;;;;4.59;62.14;100592.64;115034;1202;103153;-79
2021/04/04 07:17:33;;;;;;;10.60;6.05;;;;;;;4.65;61.88;100590.03;115459;1199;103012;-78
2021/04/04 07:20:13;;;;;;;8.23;5.27;;;;;;;4.69;61.72;100593.49;115624;1199;102993;-78
2021/04/04 07:23:16;;;;;;;8.80;6.57;;;;;;;4.80;61.62;100594.30;115332;1198;103140;-79
2021/04/04 07:25:56;;;;;;;10.03;6.57;;;;;;;4.87;61.39;100597.74;115573;1196;103136;-78
2021/04/04 07:28:51;;;;;;;9.80;6.40;;;;;;;4.95;61.26;100609.77;115489;1199;103043;-79
2021/04/04 07:31:26;;;;;;;9.57;5.87;;;;;;;5.02;60.71;100602.83;115605;1197;103020;-79
2021/04/04 07:34:13;;;;;;;9.37;6.07;;;;;;;5.20;60.65;100602.75;115579;1196;103134;-79
2021/04/04 07:37:10;;;;;;;9.03;6.35;;;;;;;5.67;60.41;100602.50;115390;1196;102977;-78
2021/04/04 07:39:44;;;;;;;11.90;6.30;;;;;;;6.35;59.59;100600.28;115376;1196;103101;-78
2021/04/04 07:42:26;;;;;;;8.83;6.03;;;;;;;7.32;58.71;100606.09;115349;1199;103753;-78
2021/04/04 07:44:57;;;;;;;25.77;14.60;;;;;;;8.00;57.72;100598.20;115589;1199;102986;-78
2021/04/04 07:47:40;;;;;;;14.27;7.40;;;;;;;9.57;56.20;100593.46;115464;1197;103050;-78
2021/04/04 07:50:10;;;;;;;12.83;7.73;;;;;;;10.33;53.64;100596.00;115359;1199;103014;-78
2021/04/04 07:53:02;;;;;;;9.20;6.33;;;;;;;10.83;53.32;100592.06;115360;1199;102989;-78
2021/04/04 07:55:36;;;;;;;7.53;5.97;;;;;;;11.68;51.44;100588.69;115368;1196;102974;-79
2021/04/04 07:58:06;;;;;;;9.13;6.20;;;;;;;11.96;50.07;100591.30;115332;1196;102986;-79
2021/04/04 08:00:35;;;;;;;7.33;5.33;;;;;;;12.50;48.73;100582.51;115522;1196;103499;-79
2021/04/04 08:03:05;;;;;;;6.93;5.10;;;;;;;13.50;48.06;100587.62;115371;1200;103046;-79
2021/04/04 08:05:39;;;;;;;5.93;4.90;;;;;;;15.49;46.76;100574.70;115607;1197;103024;-80
2021/04/04 08:08:11;;;;;;;6.47;4.80;;;;;;;17.44;44.03;100568.20;115326;1199;103043;-78
2021/04/04 08:11:16;;;;;;;5.83;4.63;;;;;;;19.16;41.74;100553.67;115328;1199;103018;-78
2021/04/04 08:13:51;;;;;;;4.93;4.10;;;;;;;21.12;40.24;100548.43;115339;1200;103123;-78
2021/04/04 08:16:58;;;;;;;5.70;4.20;;;;;;;22.82;37.16;100549.95;115290;1199;102841;-78
2021/04/04 08:19:26;;;;;;;5.90;4.40;;;;;;;23.54;35.44;100551.33;115015;1202;103230;-79
2021/04/04 08:22:09;;;;;;;5.30;3.93;;;;;;;24.31;33.33;100544.04;115039;1203;103187;-79
2021/04/04 08:24:47;;;;;;;6.00;3.95;;;;;;;25.13;32.00;100538.71;115063;1203;103102;-79
2021/04/04 08:27:43;;;;;;;4.90;4.20;;;;;;;26.16;31.55;100534.64;115025;1203;103286;-79
2021/04/04 08:30:35;;;;;;;4.70;3.57;;;;;;;26.95;29.64;100534.33;114961;1203;103027;-78
2021/04/04 08:33:19;;;;;;;6.25;4.20;;;;;;;27.29;28.25;100529.27;115192;1201;103130;-79
2021/04/04 08:35:50;;;;;;;4.07;3.07;;;;;;;27.55;27.70;100524.00;115109;1201;103196;-78
2021/04/04 08:38:25;;;;;;;5.97;3.47;;;;;;;27.04;26.02;100522.75;115108;1203;103271;-79
2021/04/04 08:40:57;;;;;;;4.53;3.37;;;;;;;26.86;26.39;100516.47;114997;1199;103018;-79
2021/04/04 08:43:26;;;;;;;4.83;3.97;;;;;;;26.70;26.30;100513.58;115008;1203;102820;-79
2021/04/04 08:46:01;;;;;;;4.60;3.20;;;;;;;27.20;26.17;100518.59;115035;1202;103139;-79
2021/04/04 08:48:30;;;;;;;11.10;8.10;;;;;;;27.89;25.83;100504.59;115039;1202;102896;-79
2021/04/04 08:50:59;;;;;;;7.57;5.40;;;;;;;28.57;24.56;100494.04;115329;1199;103018;-79
2021/04/04 08:53:31;;;;;;;4.33;3.10;;;;;;;28.49;23.60;100496.66;115411;1199;103148;-79
2021/04/04 08:56:01;;;;;;;5.43;3.10;;;;;;;28.79;23.59;100489.95;115354;1199;103862;-79
2021/04/04 08:58:34;;;;;;;3.23;2.50;;;;;;;28.74;21.97;100489.60;115494;1199;103053;-79
2021/04/04 09:01:05;;;;;;;3.03;2.30;;;;;;;28.62;22.03;100480.98;115280;1199;102915;-78
2021/04/04 09:03:36;;;;;;;3.00;2.60;;;;;;;28.58;21.32;100484.98;115252;1197;103017;-78
2021/04/04 09:06:09;;;;;;;2.50;2.30;;;;;;;28.73;20.47;100483.39;115322;1196;103217;-79
2021/04/04 09:08:40;;;;;;;2.37;1.67;;;;;;;28.79;21.48;100476.53;115314;1196;103251;-79
2021/04/04 09:11:12;;;;;;;2.25;1.60;;;;;;;29.10;20.34;100482.22;115582;1199;103442;-79
2021/04/04 09:13:40;;;;;;;2.27;1.73;;;;;;;28.85;20.20;100482.08;115311;1199;103097;-79
2021/04/04 09:16:13;;;;;;;2.40;1.70;;;;;;;28.62;20.07;100483.66;115428;1199;103079;-79
2021/04/04 09:18:49;;;;;;;5.03;2.10;;;;;;;28.85;19.81;100483.92;115334;1199;103462;-79
2021/04/04 09:21:19;;;;;;;2.70;1.80;;;;;;;28.88;19.63;100487.16;115257;1197;103050;-79
2021/04/04 09:23:48;;;;;;;2.27;1.60;;;;;;;29.18;20.15;100476.86;115394;1199;103022;-79
2021/04/04 09:26:21;;;;;;;3.23;1.53;;;;;;;29.10;19.04;100479.54;115320;1198;103107;-79
2021/04/04 09:28:50;;;;;;;3.63;1.70;;;;;;;28.84;18.74;100480.41;115672;1196;103030;-79
2021/04/04 09:31:23;;;;;;;2.00;1.63;;;;;;;28.37;18.72;100476.45;115647;1196;103117;-80
2021/04/04 09:34:08;;;;;;;2.87;2.30;;;;;;;27.88;18.74;100476.94;115326;1196;103002;-79
2021/04/04 09:37:02;;;;;;;5.90;2.50;;;;;;;27.73;18.58;100473.13;115358;1196;103066;-79
2021/04/04 09:39:30;;;;;;;7.00;2.23;;;;;;;27.69;18.39;100477.95;115559;1199;103156;-79
2021/04/04 09:41:59;;;;;;;6.40;2.70;;;;;;;27.84;18.84;100469.38;115356;1198;103471;-79
2021/04/04 09:44:32;;;;;;;3.03;1.90;;;;;;;28.17;18.18;100465.91;115639;1196;103104;-79
2021/04/04 09:47:02;;;;;;;4.73;2.20;;;;;;;28.15;18.19;100467.91;115339;1197;103092;-78
2021/04/04 09:49:48;;;;;;;4.20;2.30;;;;;;;28.11;18.58;100471.08;115350;1199;103510;-79
2021/04/04 09:52:31;;;;;;;3.53;1.77;;;;;;;28.04;18.35;100465.50;115310;1200;102977;-79
2021/04/04 09:55:10;;;;;;;2.70;1.90;;;;;;;27.09;17.24;100458.05;115368;1196;103162;-80
2021/04/04 09:58:01;;;;;;;2.33;1.97;;;;;;;25.87;17.54;100457.19;115313;1200;103052;-79
2021/04/04 10:00:30;;;;;;;2.97;2.10;;;;;;;25.22;18.26;100453.34;115565;1196;103117;-78
2021/04/04 10:03:08;;;;;;;2.20;1.90;;;;;;;24.97;18.37;100449.33;115577;1200;102845;-79
2021/04/04 10:05:39;;;;;;;3.00;2.10;;;;;;;24.26;18.42;100448.45;115360;1196;103127;-79
2021/04/04 10:08:13;;;;;;;2.60;1.90;;;;;;;23.20;18.29;100450.27;115331;1197;103049;-78
2021/04/04 10:10:46;;;;;;;2.20;2.00;;;;;;;22.17;19.56;100457.53;115429;1199;102469;-79
2021/04/04 10:13:14;;;;;;;2.57;2.00;;;;;;;21.93;19.69;100446.11;115424;1200;103146;-78
2021/04/04 10:15:44;;;;;;;2.00;1.80;;;;;;;21.97;19.61;100434.28;115555;1197;102861;-78
2021/04/04 10:18:12;;;;;;;3.43;2.10;;;;;;;21.38;19.87;100442.29;115437;1196;103257;-78
2021/04/04 10:20:44;;;;;;;2.90;2.10;;;;;;;20.87;20.06;100447.73;115339;1196;103000;-78
2021/04/04 10:23:13;;;;;;;4.50;3.03;;;;;;;20.82;20.21;100441.90;115511;1196;103022;-77
2021/04/04 10:26:00;;;;;;;3.80;2.13;;;;;;;20.65;20.33;100442.28;115530;1196;102838;-78
2021/04/04 10:29:05;;;;;;;4.63;2.90;;;;;;;20.12;20.83;100442.38;115310;1196;103248;-78
2021/04/04 10:31:49;;;;;;;3.17;2.10;;;;;;;19.59;20.90;100438.06;115536;1196;103015;-77
2021/04/04 10:34:17;;;;;;;3.03;1.90;;;;;;;18.79;20.98;100441.48;115315;1196;103456;-78
2021/04/04 10:37:00;;;;;;;2.30;1.70;;;;;;;18.08;21.55;100450.22;115568;1196;103043;-78
2021/04/04 10:39:28;;;;;;;2.43;1.60;;;;;;;17.90;22.12;100441.60;115552;1196;103043;-78
2021/04/04 10:41:55;;;;;;;2.33;1.57;;;;;;;18.03;22.48;100444.38;115541;1196;103043;-77
2021/04/04 10:44:26;;;;;;;2.57;1.70;;;;;;;18.61;22.72;100441.66;115308;1196;103173;-77
2021/04/04 10:47:17;;;;;;;2.93;1.60;;;;;;;18.71;22.27;100431.41;115346;1200;101301;-78
2021/04/04 10:49:46;;;;;;;1.87;1.33;;;;;;;18.04;21.87;100430.23;115547;1196;103060;-77
2021/04/04 10:52:13;;;;;;;3.53;1.63;;;;;;;17.32;22.46;100430.93;115510;1196;103245;-79
2021/04/04 10:54:42;;;;;;;2.47;1.30;;;;;;;16.80;22.73;100424.16;115327;1199;103088;-77
2021/04/04 10:57:10;;;;;;;2.40;1.70;;;;;;;16.02;23.35;100430.08;115334;1197;102999;-78
2021/04/04 10:59:43;;;;;;;2.13;1.60;;;;;;;15.35;24.01;100422.92;115321;1196;103155;-77
2021/04/04 11:02:12;;;;;;;2.35;1.45;;;;;;;15.20;24.91;100426.28;115637;1196;103002;-77
2021/04/04 11:04:40;;;;;;;3.93;1.43;;;;;;;15.41;24.98;100431.34;115259;1199;103142;-78
2021/04/04 11:07:08;;;;;;;3.63;1.57;;;;;;;15.45;25.05;100421.55;115299;1197;103120;-78
2021/04/04 11:09:35;;;;;;;5.60;1.93;;;;;;;15.79;25.20;100411.98;115315;1197;103015;-77
2021/04/04 11:12:03;;;;;;;2.50;1.43;;;;;;;15.95;24.09;100407.63;115602;1200;101976;-78
2021/04/04 11:14:31;;;;;;;3.43;1.70;;;;;;;16.14;24.62;100407.52;115391;1200;103056;-78
2021/04/04 11:17:02;;;;;;;2.00;1.47;;;;;;;16.24;24.37;100414.02;115347;1197;103065;-78
2021/04/04 11:19:31;;;;;;;2.57;1.57;;;;;;;15.92;24.15;100418.32;115341;1199;103015;-78
2021/04/04 11:22:00;;;;;;;2.33;1.40;;;;;;;15.54;24.49;100407.09;115365;1199;103081;-77
2021/04/04 11:25:07;;;;;;;2.43;1.50;;;;;;;15.11;24.76;100401.33;115538;1198;103117;-78
2021/04/04 11:27:40;;;;;;;2.33;1.53;;;;;;;14.77;25.30;100405.55;115586;1196;102977;-77
2021/04/04 11:30:16;;;;;;;2.43;1.83;;;;;;;14.69;25.45;100405.03;115419;1196;103014;-78
2021/04/04 11:32:46;;;;;;;4.78;1.85;;;;;;;14.83;25.51;100398.30;115440;1196;103204;-79
2021/04/04 11:35:14;;;;;;;2.77;1.70;;;;;;;14.74;25.22;100404.84;115344;1199;103059;-78
2021/04/04 11:37:43;;;;;;;5.00;1.77;;;;;;;14.37;25.24;100396.02;115625;1196;100609;-79
2021/04/04 11:40:23;;;;;;;3.30;1.70;;;;;;;14.18;25.36;100395.98;115350;1199;102550;-78
2021/04/04 11:43:11;;;;;;;1.93;1.47;;;;;;;13.92;25.53;100385.78;115369;1196;103152;-78
2021/04/04 11:45:40;;;;;;;2.90;1.40;;;;;;;13.72;25.91;100386.64;115310;1198;103034;-78
2021/04/04 11:48:43;;;;;;;2.73;1.83;;;;;;;13.49;26.00;100373.67;115336;1198;103433;-78